< < Back
Terminal Aerodrome Forecast


Current Version              Previous Versions:   1  2  3  4  5  6  7  8  9  

Terminal Aerodrome Forecast

164
FTUS42 KTAE 220500
TAFABY
TAF
KABY 220520Z 2206/2306 00000KT P6SM SCT250
      TEMPO 2209/2212 4SM BR
     FM221400 31005KT P6SM SCT040
     FM230200 00000KT P6SM SCT250=

Latest METAR

911
SAUS70 KWBC 220900 RRK
MTRABY
METAR KABY 220853Z 00000KT 10SM CLR 22/22 A3008 RMK AO2 SLP183 T02170217
57009


USA.gov is the U.S. government's official web portal to all federal, state and local government web resources and services.